sensor_id;sensor_type;location;lat;lon;timestamp;P1;durP1;ratioP1;P2;durP2;ratioP2
23266;SDS011;11802;53.160;8.214;2024-03-08T00:02:13;38.60;;;20.60;;
23266;SDS011;11802;53.160;8.214;2024-03-08T00:04:39;41.47;;;21.10;;
23266;SDS011;11802;53.160;8.214;2024-03-08T00:07:04;39.63;;;20.30;;
23266;SDS011;11802;53.160;8.214;2024-03-08T00:09:31;45.73;;;20.07;;
23266;SDS011;11802;53.160;8.214;2024-03-08T00:11:57;38.77;;;20.77;;
23266;SDS011;11802;53.160;8.214;2024-03-08T00:14:22;40.87;;;20.23;;
23266;SDS011;11802;53.160;8.214;2024-03-08T00:16:48;39.87;;;21.07;;
23266;SDS011;11802;53.160;8.214;2024-03-08T00:19:14;38.60;;;20.03;;
23266;SDS011;11802;53.160;8.214;2024-03-08T00:21:39;40.57;;;21.70;;
23266;SDS011;11802;53.160;8.214;2024-03-08T00:24:06;36.27;;;20.23;;
23266;SDS011;11802;53.160;8.214;2024-03-08T00:26:32;37.67;;;21.10;;
23266;SDS011;11802;53.160;8.214;2024-03-08T00:28:58;39.97;;;20.87;;
23266;SDS011;11802;53.160;8.214;2024-03-08T00:31:23;42.73;;;21.03;;
23266;SDS011;11802;53.160;8.214;2024-03-08T00:33:51;42.50;;;21.67;;
23266;SDS011;11802;53.160;8.214;2024-03-08T00:36:17;42.60;;;20.90;;
23266;SDS011;11802;53.160;8.214;2024-03-08T00:38:43;43.33;;;20.77;;
23266;SDS011;11802;53.160;8.214;2024-03-08T00:41:08;38.30;;;19.53;;
23266;SDS011;11802;53.160;8.214;2024-03-08T00:43:34;36.43;;;20.17;;
23266;SDS011;11802;53.160;8.214;2024-03-08T00:45:59;38.57;;;20.50;;
23266;SDS011;11802;53.160;8.214;2024-03-08T00:48:26;39.97;;;19.93;;
23266;SDS011;11802;53.160;8.214;2024-03-08T00:50:51;36.03;;;20.03;;
23266;SDS011;11802;53.160;8.214;2024-03-08T00:53:17;35.07;;;18.47;;
23266;SDS011;11802;53.160;8.214;2024-03-08T00:55:43;39.50;;;19.37;;
23266;SDS011;11802;53.160;8.214;2024-03-08T00:58:11;37.80;;;19.70;;
23266;SDS011;11802;53.160;8.214;2024-03-08T01:00:37;40.83;;;19.90;;
23266;SDS011;11802;53.160;8.214;2024-03-08T01:03:03;37.33;;;19.50;;
23266;SDS011;11802;53.160;8.214;2024-03-08T01:05:29;36.40;;;18.73;;
23266;SDS011;11802;53.160;8.214;2024-03-08T01:07:55;41.40;;;20.13;;
23266;SDS011;11802;53.160;8.214;2024-03-08T01:10:21;34.63;;;18.30;;
23266;SDS011;11802;53.160;8.214;2024-03-08T01:12:46;35.47;;;18.17;;
23266;SDS011;11802;53.160;8.214;2024-03-08T01:15:12;34.60;;;18.53;;
23266;SDS011;11802;53.160;8.214;2024-03-08T01:17:37;37.97;;;18.53;;
23266;SDS011;11802;53.160;8.214;2024-03-08T01:20:04;34.13;;;18.30;;
23266;SDS011;11802;53.160;8.214;2024-03-08T01:22:30;34.50;;;17.83;;
23266;SDS011;11802;53.160;8.214;2024-03-08T01:24:56;35.40;;;17.53;;
23266;SDS011;11802;53.160;8.214;2024-03-08T01:27:22;34.47;;;17.57;;
23266;SDS011;11802;53.160;8.214;2024-03-08T01:29:47;34.00;;;17.57;;
23266;SDS011;11802;53.160;8.214;2024-03-08T01:32:13;39.07;;;19.43;;
23266;SDS011;11802;53.160;8.214;2024-03-08T01:34:39;31.80;;;17.83;;
23266;SDS011;11802;53.160;8.214;2024-03-08T01:37:05;36.27;;;17.53;;
23266;SDS011;11802;53.160;8.214;2024-03-08T01:39:31;39.53;;;18.53;;
23266;SDS011;11802;53.160;8.214;2024-03-08T01:41:57;37.03;;;17.47;;
23266;SDS011;11802;53.160;8.214;2024-03-08T01:44:22;34.97;;;18.17;;
23266;SDS011;11802;53.160;8.214;2024-03-08T01:46:48;35.07;;;18.50;;
23266;SDS011;11802;53.160;8.214;2024-03-08T01:49:17;34.00;;;18.13;;
23266;SDS011;11802;53.160;8.214;2024-03-08T01:51:45;38.27;;;18.13;;
23266;SDS011;11802;53.160;8.214;2024-03-08T01:54:11;34.50;;;17.43;;
23266;SDS011;11802;53.160;8.214;2024-03-08T01:56:38;31.73;;;17.37;;
23266;SDS011;11802;53.160;8.214;2024-03-08T01:59:05;38.43;;;17.77;;
23266;SDS011;11802;53.160;8.214;2024-03-08T02:01:32;30.50;;;16.67;;
23266;SDS011;11802;53.160;8.214;2024-03-08T02:03:59;39.60;;;18.00;;
23266;SDS011;11802;53.160;8.214;2024-03-08T02:06:24;36.27;;;18.03;;
23266;SDS011;11802;53.160;8.214;2024-03-08T02:08:50;34.00;;;18.10;;
23266;SDS011;11802;53.160;8.214;2024-03-08T02:11:16;32.00;;;17.37;;
23266;SDS011;11802;53.160;8.214;2024-03-08T02:13:42;35.90;;;17.87;;
23266;SDS011;11802;53.160;8.214;2024-03-08T02:16:08;38.53;;;18.20;;
23266;SDS011;11802;53.160;8.214;2024-03-08T02:18:33;33.97;;;17.83;;
23266;SDS011;11802;53.160;8.214;2024-03-08T02:21:00;33.33;;;17.73;;
23266;SDS011;11802;53.160;8.214;2024-03-08T02:23:29;35.50;;;18.33;;
23266;SDS011;11802;53.160;8.214;2024-03-08T02:25:55;34.03;;;17.13;;
23266;SDS011;11802;53.160;8.214;2024-03-08T02:28:22;35.07;;;17.50;;
23266;SDS011;11802;53.160;8.214;2024-03-08T02:30:50;32.83;;;17.40;;
23266;SDS011;11802;53.160;8.214;2024-03-08T02:33:16;32.63;;;16.33;;
23266;SDS011;11802;53.160;8.214;2024-03-08T02:35:43;32.50;;;16.17;;
23266;SDS011;11802;53.160;8.214;2024-03-08T02:38:15;32.90;;;16.83;;
23266;SDS011;11802;53.160;8.214;2024-03-08T02:40:43;30.93;;;17.03;;
23266;SDS011;11802;53.160;8.214;2024-03-08T02:43:09;36.30;;;16.97;;
23266;SDS011;11802;53.160;8.214;2024-03-08T02:45:36;34.27;;;17.77;;
23266;SDS011;11802;53.160;8.214;2024-03-08T02:48:01;31.73;;;17.57;;
23266;SDS011;11802;53.160;8.214;2024-03-08T02:50:27;32.33;;;16.97;;
23266;SDS011;11802;53.160;8.214;2024-03-08T02:52:53;31.50;;;17.00;;
23266;SDS011;11802;53.160;8.214;2024-03-08T02:55:19;32.97;;;17.07;;
23266;SDS011;11802;53.160;8.214;2024-03-08T02:57:45;32.00;;;17.47;;
23266;SDS011;11802;53.160;8.214;2024-03-08T03:00:14;34.93;;;16.40;;
23266;SDS011;11802;53.160;8.214;2024-03-08T03:02:40;35.03;;;17.33;;
23266;SDS011;11802;53.160;8.214;2024-03-08T03:05:07;33.57;;;18.53;;
23266;SDS011;11802;53.160;8.214;2024-03-08T03:07:34;39.97;;;18.80;;
23266;SDS011;11802;53.160;8.214;2024-03-08T03:10:01;34.90;;;18.30;;
23266;SDS011;11802;53.160;8.214;2024-03-08T03:12:30;35.03;;;18.50;;
23266;SDS011;11802;53.160;8.214;2024-03-08T03:14:57;35.23;;;17.50;;
23266;SDS011;11802;53.160;8.214;2024-03-08T03:17:26;29.40;;;16.40;;
23266;SDS011;11802;53.160;8.214;2024-03-08T03:19:52;31.93;;;16.40;;
23266;SDS011;11802;53.160;8.214;2024-03-08T03:22:18;31.93;;;17.37;;
23266;SDS011;11802;53.160;8.214;2024-03-08T03:24:46;33.20;;;17.67;;
23266;SDS011;11802;53.160;8.214;2024-03-08T03:27:12;33.17;;;18.27;;
23266;SDS011;11802;53.160;8.214;2024-03-08T03:29:40;31.00;;;16.83;;
23266;SDS011;11802;53.160;8.214;2024-03-08T03:32:07;37.27;;;18.53;;
23266;SDS011;11802;53.160;8.214;2024-03-08T03:34:33;35.23;;;18.73;;
23266;SDS011;11802;53.160;8.214;2024-03-08T03:37:02;32.90;;;17.67;;
23266;SDS011;11802;53.160;8.214;2024-03-08T03:39:29;35.40;;;18.40;;
23266;SDS011;11802;53.160;8.214;2024-03-08T03:41:57;34.53;;;17.70;;
23266;SDS011;11802;53.160;8.214;2024-03-08T03:44:23;32.67;;;16.67;;
23266;SDS011;11802;53.160;8.214;2024-03-08T03:46:48;35.53;;;17.97;;
23266;SDS011;11802;53.160;8.214;2024-03-08T03:49:15;30.27;;;17.63;;
23266;SDS011;11802;53.160;8.214;2024-03-08T03:51:42;34.57;;;17.77;;
23266;SDS011;11802;53.160;8.214;2024-03-08T03:54:07;34.63;;;18.80;;
23266;SDS011;11802;53.160;8.214;2024-03-08T03:56:33;33.77;;;17.50;;
23266;SDS011;11802;53.160;8.214;2024-03-08T03:58:59;35.80;;;17.83;;
23266;SDS011;11802;53.160;8.214;2024-03-08T04:01:24;34.07;;;18.07;;
23266;SDS011;11802;53.160;8.214;2024-03-08T04:03:50;34.00;;;17.33;;
23266;SDS011;11802;53.160;8.214;2024-03-08T04:06:15;36.60;;;18.60;;
23266;SDS011;11802;53.160;8.214;2024-03-08T04:08:41;34.20;;;17.83;;
23266;SDS011;11802;53.160;8.214;2024-03-08T04:11:07;33.03;;;17.93;;
23266;SDS011;11802;53.160;8.214;2024-03-08T04:13:35;36.10;;;19.13;;
23266;SDS011;11802;53.160;8.214;2024-03-08T04:16:01;32.87;;;17.80;;
23266;SDS011;11802;53.160;8.214;2024-03-08T04:18:27;39.23;;;19.43;;
23266;SDS011;11802;53.160;8.214;2024-03-08T04:20:53;31.40;;;17.90;;
23266;SDS011;11802;53.160;8.214;2024-03-08T04:23:19;35.70;;;17.97;;
23266;SDS011;11802;53.160;8.214;2024-03-08T04:25:44;36.17;;;19.07;;
23266;SDS011;11802;53.160;8.214;2024-03-08T04:28:10;34.23;;;18.77;;
23266;SDS011;11802;53.160;8.214;2024-03-08T04:30:37;34.87;;;18.50;;
23266;SDS011;11802;53.160;8.214;2024-03-08T04:33:05;32.37;;;17.33;;
23266;SDS011;11802;53.160;8.214;2024-03-08T04:35:34;39.93;;;19.90;;
23266;SDS011;11802;53.160;8.214;2024-03-08T04:38:00;30.23;;;17.43;;
23266;SDS011;11802;53.160;8.214;2024-03-08T04:40:25;31.40;;;17.40;;
23266;SDS011;11802;53.160;8.214;2024-03-08T04:42:51;36.37;;;19.47;;
23266;SDS011;11802;53.160;8.214;2024-03-08T04:45:17;34.53;;;18.50;;
23266;SDS011;11802;53.160;8.214;2024-03-08T04:47:42;38.87;;;17.30;;
23266;SDS011;11802;53.160;8.214;2024-03-08T04:50:08;36.53;;;18.37;;
23266;SDS011;11802;53.160;8.214;2024-03-08T04:52:34;36.60;;;19.10;;
23266;SDS011;11802;53.160;8.214;2024-03-08T04:55:00;35.70;;;18.00;;
23266;SDS011;11802;53.160;8.214;2024-03-08T04:57:29;32.07;;;18.37;;
23266;SDS011;11802;53.160;8.214;2024-03-08T04:59:55;38.20;;;18.87;;
23266;SDS011;11802;53.160;8.214;2024-03-08T05:02:20;32.60;;;18.40;;
23266;SDS011;11802;53.160;8.214;2024-03-08T05:04:47;38.23;;;19.07;;
23266;SDS011;11802;53.160;8.214;2024-03-08T05:07:13;34.40;;;19.17;;
23266;SDS011;11802;53.160;8.214;2024-03-08T05:09:38;36.53;;;19.33;;
23266;SDS011;11802;53.160;8.214;2024-03-08T05:12:06;37.50;;;18.47;;
23266;SDS011;11802;53.160;8.214;2024-03-08T05:14:31;39.57;;;19.67;;
23266;SDS011;11802;53.160;8.214;2024-03-08T05:16:57;37.60;;;18.60;;
23266;SDS011;11802;53.160;8.214;2024-03-08T05:19:22;35.13;;;19.13;;
23266;SDS011;11802;53.160;8.214;2024-03-08T05:21:49;41.70;;;20.37;;
23266;SDS011;11802;53.160;8.214;2024-03-08T05:24:15;34.63;;;19.70;;
23266;SDS011;11802;53.160;8.214;2024-03-08T05:26:41;41.50;;;20.10;;
23266;SDS011;11802;53.160;8.214;2024-03-08T05:29:07;43.33;;;19.13;;
23266;SDS011;11802;53.160;8.214;2024-03-08T05:31:38;34.73;;;19.13;;
23266;SDS011;11802;53.160;8.214;2024-03-08T05:34:12;37.10;;;17.90;;
23266;SDS011;11802;53.160;8.214;2024-03-08T05:36:39;43.07;;;21.30;;
23266;SDS011;11802;53.160;8.214;2024-03-08T05:39:05;41.20;;;19.87;;
23266;SDS011;11802;53.160;8.214;2024-03-08T05:41:32;39.30;;;20.60;;
23266;SDS011;11802;53.160;8.214;2024-03-08T05:43:57;35.97;;;19.53;;
23266;SDS011;11802;53.160;8.214;2024-03-08T05:46:23;35.47;;;18.73;;
23266;SDS011;11802;53.160;8.214;2024-03-08T05:48:48;38.80;;;20.90;;
23266;SDS011;11802;53.160;8.214;2024-03-08T05:51:14;38.23;;;21.20;;
23266;SDS011;11802;53.160;8.214;2024-03-08T05:53:40;39.50;;;20.80;;
23266;SDS011;11802;53.160;8.214;2024-03-08T05:56:05;43.77;;;22.90;;
23266;SDS011;11802;53.160;8.214;2024-03-08T05:58:31;39.90;;;20.23;;
23266;SDS011;11802;53.160;8.214;2024-03-08T06:00:57;38.50;;;20.50;;
23266;SDS011;11802;53.160;8.214;2024-03-08T06:03:22;40.10;;;19.93;;
23266;SDS011;11802;53.160;8.214;2024-03-08T06:05:48;41.47;;;20.77;;
23266;SDS011;11802;53.160;8.214;2024-03-08T06:08:14;39.93;;;21.20;;
23266;SDS011;11802;53.160;8.214;2024-03-08T06:10:40;41.43;;;20.23;;
23266;SDS011;11802;53.160;8.214;2024-03-08T06:13:06;36.97;;;19.70;;
23266;SDS011;11802;53.160;8.214;2024-03-08T06:15:31;37.03;;;20.20;;
23266;SDS011;11802;53.160;8.214;2024-03-08T06:17:57;38.53;;;20.60;;
23266;SDS011;11802;53.160;8.214;2024-03-08T06:20:23;40.10;;;21.23;;
23266;SDS011;11802;53.160;8.214;2024-03-08T06:22:51;40.43;;;20.30;;
23266;SDS011;11802;53.160;8.214;2024-03-08T06:25:17;36.17;;;18.63;;
23266;SDS011;11802;53.160;8.214;2024-03-08T06:27:43;37.53;;;19.83;;
23266;SDS011;11802;53.160;8.214;2024-03-08T06:30:09;38.10;;;20.07;;
23266;SDS011;11802;53.160;8.214;2024-03-08T06:32:35;37.90;;;20.00;;
23266;SDS011;11802;53.160;8.214;2024-03-08T06:35:02;37.13;;;20.50;;
23266;SDS011;11802;53.160;8.214;2024-03-08T06:37:31;35.53;;;19.77;;
23266;SDS011;11802;53.160;8.214;2024-03-08T06:39:59;35.73;;;19.13;;
23266;SDS011;11802;53.160;8.214;2024-03-08T06:42:29;37.57;;;19.57;;
23266;SDS011;11802;53.160;8.214;2024-03-08T06:44:58;39.03;;;18.40;;
23266;SDS011;11802;53.160;8.214;2024-03-08T06:47:29;37.37;;;20.10;;
23266;SDS011;11802;53.160;8.214;2024-03-08T06:49:55;36.93;;;19.10;;
23266;SDS011;11802;53.160;8.214;2024-03-08T06:52:26;34.67;;;19.27;;
23266;SDS011;11802;53.160;8.214;2024-03-08T06:54:52;38.03;;;18.77;;
23266;SDS011;11802;53.160;8.214;2024-03-08T06:57:18;29.70;;;17.50;;
23266;SDS011;11802;53.160;8.214;2024-03-08T06:59:46;29.73;;;17.73;;
23266;SDS011;11802;53.160;8.214;2024-03-08T07:02:13;29.33;;;17.70;;
23266;SDS011;11802;53.160;8.214;2024-03-08T07:04:38;31.37;;;16.83;;
23266;SDS011;11802;53.160;8.214;2024-03-08T07:07:04;29.53;;;17.00;;
23266;SDS011;11802;53.160;8.214;2024-03-08T07:09:30;31.90;;;17.57;;
23266;SDS011;11802;53.160;8.214;2024-03-08T07:11:56;28.23;;;16.07;;
23266;SDS011;11802;53.160;8.214;2024-03-08T07:14:22;30.20;;;18.03;;
23266;SDS011;11802;53.160;8.214;2024-03-08T07:16:48;28.63;;;17.53;;
23266;SDS011;11802;53.160;8.214;2024-03-08T07:19:14;30.57;;;17.90;;
23266;SDS011;11802;53.160;8.214;2024-03-08T07:21:40;30.57;;;18.37;;
23266;SDS011;11802;53.160;8.214;2024-03-08T07:24:07;30.00;;;18.27;;
23266;SDS011;11802;53.160;8.214;2024-03-08T07:26:51;29.30;;;17.23;;
23266;SDS011;11802;53.160;8.214;2024-03-08T07:29:17;32.53;;;18.33;;
23266;SDS011;11802;53.160;8.214;2024-03-08T07:31:42;33.87;;;18.53;;
23266;SDS011;11802;53.160;8.214;2024-03-08T07:34:27;31.07;;;17.67;;
23266;SDS011;11802;53.160;8.214;2024-03-08T07:36:57;32.83;;;17.70;;
23266;SDS011;11802;53.160;8.214;2024-03-08T07:39:23;29.23;;;18.57;;
23266;SDS011;11802;53.160;8.214;2024-03-08T07:41:49;32.60;;;18.27;;
23266;SDS011;11802;53.160;8.214;2024-03-08T07:44:17;28.73;;;17.90;;
23266;SDS011;11802;53.160;8.214;2024-03-08T07:46:43;28.43;;;18.33;;
23266;SDS011;11802;53.160;8.214;2024-03-08T07:49:09;27.30;;;16.93;;
23266;SDS011;11802;53.160;8.214;2024-03-08T07:51:36;29.10;;;16.97;;
23266;SDS011;11802;53.160;8.214;2024-03-08T07:54:04;31.63;;;18.80;;
23266;SDS011;11802;53.160;8.214;2024-03-08T07:56:30;30.10;;;17.87;;
23266;SDS011;11802;53.160;8.214;2024-03-08T07:58:56;29.27;;;17.13;;
23266;SDS011;11802;53.160;8.214;2024-03-08T08:01:21;33.87;;;18.13;;
23266;SDS011;11802;53.160;8.214;2024-03-08T08:03:47;35.30;;;17.97;;
23266;SDS011;11802;53.160;8.214;2024-03-08T08:06:14;27.97;;;16.53;;
23266;SDS011;11802;53.160;8.214;2024-03-08T08:08:41;29.57;;;16.67;;
23266;SDS011;11802;53.160;8.214;2024-03-08T08:11:07;28.37;;;16.43;;
23266;SDS011;11802;53.160;8.214;2024-03-08T08:13:33;27.97;;;17.53;;
23266;SDS011;11802;53.160;8.214;2024-03-08T08:16:01;28.77;;;17.23;;
23266;SDS011;11802;53.160;8.214;2024-03-08T08:18:27;30.47;;;17.57;;
23266;SDS011;11802;53.160;8.214;2024-03-08T08:20:54;28.97;;;17.00;;
23266;SDS011;11802;53.160;8.214;2024-03-08T08:23:20;29.33;;;17.43;;
23266;SDS011;11802;53.160;8.214;2024-03-08T08:25:46;31.93;;;18.00;;
23266;SDS011;11802;53.160;8.214;2024-03-08T08:28:16;27.77;;;16.90;;
23266;SDS011;11802;53.160;8.214;2024-03-08T08:30:42;31.20;;;17.53;;
23266;SDS011;11802;53.160;8.214;2024-03-08T08:33:17;26.67;;;16.90;;
23266;SDS011;11802;53.160;8.214;2024-03-08T08:35:49;29.53;;;18.03;;
23266;SDS011;11802;53.160;8.214;2024-03-08T08:38:32;27.37;;;16.83;;
23266;SDS011;11802;53.160;8.214;2024-03-08T08:41:25;30.53;;;18.33;;
23266;SDS011;11802;53.160;8.214;2024-03-08T08:43:57;28.23;;;17.77;;
23266;SDS011;11802;53.160;8.214;2024-03-08T08:46:23;28.83;;;17.13;;
23266;SDS011;11802;53.160;8.214;2024-03-08T08:48:48;27.27;;;17.70;;
23266;SDS011;11802;53.160;8.214;2024-03-08T08:51:14;28.70;;;17.97;;
23266;SDS011;11802;53.160;8.214;2024-03-08T08:53:43;29.17;;;17.63;;
23266;SDS011;11802;53.160;8.214;2024-03-08T08:56:10;31.23;;;18.30;;
23266;SDS011;11802;53.160;8.214;2024-03-08T08:58:38;26.93;;;17.40;;
23266;SDS011;11802;53.160;8.214;2024-03-08T09:01:04;26.07;;;16.13;;
23266;SDS011;11802;53.160;8.214;2024-03-08T09:03:30;28.00;;;17.20;;
23266;SDS011;11802;53.160;8.214;2024-03-08T09:05:56;30.93;;;18.07;;
23266;SDS011;11802;53.160;8.214;2024-03-08T09:08:21;29.50;;;16.57;;
23266;SDS011;11802;53.160;8.214;2024-03-08T09:10:48;29.33;;;17.60;;
23266;SDS011;11802;53.160;8.214;2024-03-08T09:13:13;27.13;;;16.60;;
23266;SDS011;11802;53.160;8.214;2024-03-08T09:15:39;29.97;;;16.73;;
23266;SDS011;11802;53.160;8.214;2024-03-08T09:18:06;29.87;;;17.90;;
23266;SDS011;11802;53.160;8.214;2024-03-08T09:20:33;25.30;;;16.17;;
23266;SDS011;11802;53.160;8.214;2024-03-08T09:22:58;31.07;;;17.80;;
23266;SDS011;11802;53.160;8.214;2024-03-08T09:25:25;30.43;;;17.53;;
23266;SDS011;11802;53.160;8.214;2024-03-08T09:27:51;28.93;;;17.07;;
23266;SDS011;11802;53.160;8.214;2024-03-08T09:30:16;25.27;;;16.67;;
23266;SDS011;11802;53.160;8.214;2024-03-08T09:32:43;28.23;;;16.57;;
23266;SDS011;11802;53.160;8.214;2024-03-08T09:35:08;28.63;;;16.40;;
23266;SDS011;11802;53.160;8.214;2024-03-08T09:37:34;27.23;;;16.63;;
23266;SDS011;11802;53.160;8.214;2024-03-08T09:40:00;25.67;;;16.33;;
23266;SDS011;11802;53.160;8.214;2024-03-08T09:42:34;26.77;;;16.50;;
23266;SDS011;11802;53.160;8.214;2024-03-08T09:45:04;29.93;;;17.20;;
23266;SDS011;11802;53.160;8.214;2024-03-08T09:47:35;27.10;;;16.33;;
23266;SDS011;11802;53.160;8.214;2024-03-08T09:50:05;31.50;;;18.03;;
23266;SDS011;11802;53.160;8.214;2024-03-08T09:52:34;25.97;;;17.03;;
23266;SDS011;11802;53.160;8.214;2024-03-08T09:55:05;28.77;;;17.87;;
23266;SDS011;11802;53.160;8.214;2024-03-08T09:57:32;27.27;;;16.93;;
23266;SDS011;11802;53.160;8.214;2024-03-08T09:59:58;31.87;;;18.47;;
23266;SDS011;11802;53.160;8.214;2024-03-08T10:02:24;29.07;;;16.87;;
23266;SDS011;11802;53.160;8.214;2024-03-08T10:04:51;26.20;;;16.77;;
23266;SDS011;11802;53.160;8.214;2024-03-08T10:07:18;23.23;;;15.23;;
23266;SDS011;11802;53.160;8.214;2024-03-08T10:09:44;29.70;;;16.97;;
23266;SDS011;11802;53.160;8.214;2024-03-08T10:12:15;29.73;;;18.10;;
23266;SDS011;11802;53.160;8.214;2024-03-08T10:14:42;31.03;;;18.67;;
23266;SDS011;11802;53.160;8.214;2024-03-08T10:17:08;27.57;;;17.03;;
23266;SDS011;11802;53.160;8.214;2024-03-08T10:19:36;28.60;;;18.47;;
23266;SDS011;11802;53.160;8.214;2024-03-08T10:22:29;27.77;;;17.53;;
23266;SDS011;11802;53.160;8.214;2024-03-08T10:24:56;29.83;;;19.23;;
23266;SDS011;11802;53.160;8.214;2024-03-08T10:27:22;29.43;;;17.77;;
23266;SDS011;11802;53.160;8.214;2024-03-08T10:29:48;30.33;;;18.93;;
23266;SDS011;11802;53.160;8.214;2024-03-08T10:32:16;29.13;;;19.07;;
23266;SDS011;11802;53.160;8.214;2024-03-08T10:34:42;30.67;;;18.13;;
23266;SDS011;11802;53.160;8.214;2024-03-08T10:40:39;28.97;;;17.63;;
23266;SDS011;11802;53.160;8.214;2024-03-08T10:43:12;30.93;;;18.57;;
23266;SDS011;11802;53.160;8.214;2024-03-08T10:45:49;33.23;;;18.27;;
23266;SDS011;11802;53.160;8.214;2024-03-08T10:48:32;26.97;;;17.60;;
23266;SDS011;11802;53.160;8.214;2024-03-08T10:51:06;30.00;;;17.57;;
23266;SDS011;11802;53.160;8.214;2024-03-08T10:53:33;28.63;;;18.30;;
23266;SDS011;11802;53.160;8.214;2024-03-08T10:56:08;28.50;;;18.43;;
23266;SDS011;11802;53.160;8.214;2024-03-08T10:58:35;28.80;;;17.60;;
23266;SDS011;11802;53.160;8.214;2024-03-08T11:01:01;28.27;;;17.80;;
23266;SDS011;11802;53.160;8.214;2024-03-08T11:06:06;29.93;;;18.90;;
23266;SDS011;11802;53.160;8.214;2024-03-08T11:08:35;34.73;;;20.20;;
23266;SDS011;11802;53.160;8.214;2024-03-08T11:11:01;30.53;;;18.60;;
23266;SDS011;11802;53.160;8.214;2024-03-08T11:16:12;33.13;;;18.33;;
23266;SDS011;11802;53.160;8.214;2024-03-08T11:18:54;32.37;;;18.27;;
23266;SDS011;11802;53.160;8.214;2024-03-08T11:21:29;30.73;;;17.97;;
23266;SDS011;11802;53.160;8.214;2024-03-08T11:24:01;30.67;;;17.63;;
23266;SDS011;11802;53.160;8.214;2024-03-08T11:26:31;29.90;;;18.50;;
23266;SDS011;11802;53.160;8.214;2024-03-08T11:32:04;29.93;;;20.03;;
23266;SDS011;11802;53.160;8.214;2024-03-08T11:34:37;31.43;;;18.60;;
23266;SDS011;11802;53.160;8.214;2024-03-08T11:37:05;32.20;;;18.33;;
23266;SDS011;11802;53.160;8.214;2024-03-08T11:39:53;33.50;;;18.43;;
23266;SDS011;11802;53.160;8.214;2024-03-08T11:46:19;28.43;;;18.23;;
23266;SDS011;11802;53.160;8.214;2024-03-08T11:48:47;28.17;;;18.40;;
23266;SDS011;11802;53.160;8.214;2024-03-08T11:51:13;29.50;;;18.23;;
23266;SDS011;11802;53.160;8.214;2024-03-08T11:53:40;33.90;;;18.37;;
23266;SDS011;11802;53.160;8.214;2024-03-08T11:56:13;29.60;;;18.73;;
23266;SDS011;11802;53.160;8.214;2024-03-08T11:58:39;29.10;;;18.83;;
23266;SDS011;11802;53.160;8.214;2024-03-08T12:01:10;31.00;;;19.50;;
23266;SDS011;11802;53.160;8.214;2024-03-08T12:03:39;28.80;;;18.50;;
23266;SDS011;11802;53.160;8.214;2024-03-08T12:06:08;28.53;;;18.30;;
23266;SDS011;11802;53.160;8.214;2024-03-08T12:08:37;30.07;;;19.00;;
23266;SDS011;11802;53.160;8.214;2024-03-08T12:11:06;30.00;;;18.53;;
23266;SDS011;11802;53.160;8.214;2024-03-08T12:16:54;29.63;;;19.30;;
23266;SDS011;11802;53.160;8.214;2024-03-08T12:19:34;27.47;;;17.73;;
23266;SDS011;11802;53.160;8.214;2024-03-08T12:25:45;30.43;;;19.10;;
23266;SDS011;11802;53.160;8.214;2024-03-08T12:28:22;30.23;;;18.60;;
23266;SDS011;11802;53.160;8.214;2024-03-08T12:30:49;31.73;;;18.27;;
23266;SDS011;11802;53.160;8.214;2024-03-08T12:33:20;27.57;;;18.43;;
23266;SDS011;11802;53.160;8.214;2024-03-08T12:35:51;30.60;;;18.37;;
23266;SDS011;11802;53.160;8.214;2024-03-08T12:38:20;28.80;;;17.30;;
23266;SDS011;11802;53.160;8.214;2024-03-08T12:40:50;29.50;;;18.40;;
23266;SDS011;11802;53.160;8.214;2024-03-08T12:43:16;28.80;;;19.37;;
23266;SDS011;11802;53.160;8.214;2024-03-08T12:45:42;29.40;;;19.10;;
23266;SDS011;11802;53.160;8.214;2024-03-08T12:48:14;27.07;;;17.20;;
23266;SDS011;11802;53.160;8.214;2024-03-08T12:50:42;28.83;;;18.00;;
23266;SDS011;11802;53.160;8.214;2024-03-08T12:53:13;28.87;;;18.73;;
23266;SDS011;11802;53.160;8.214;2024-03-08T12:55:40;27.83;;;17.10;;
23266;SDS011;11802;53.160;8.214;2024-03-08T12:58:06;29.07;;;17.50;;
23266;SDS011;11802;53.160;8.214;2024-03-08T13:00:33;28.53;;;17.63;;
23266;SDS011;11802;53.160;8.214;2024-03-08T13:03:01;28.77;;;17.00;;
23266;SDS011;11802;53.160;8.214;2024-03-08T13:05:27;27.17;;;16.63;;
23266;SDS011;11802;53.160;8.214;2024-03-08T13:07:53;29.93;;;16.90;;
23266;SDS011;11802;53.160;8.214;2024-03-08T13:10:19;27.90;;;16.10;;
23266;SDS011;11802;53.160;8.214;2024-03-08T13:12:45;26.97;;;16.97;;
23266;SDS011;11802;53.160;8.214;2024-03-08T13:15:11;27.97;;;17.53;;
23266;SDS011;11802;53.160;8.214;2024-03-08T13:17:44;27.47;;;18.10;;
23266;SDS011;11802;53.160;8.214;2024-03-08T13:20:11;25.57;;;16.00;;
23266;SDS011;11802;53.160;8.214;2024-03-08T13:22:43;24.73;;;15.90;;
23266;SDS011;11802;53.160;8.214;2024-03-08T13:25:10;28.10;;;16.57;;
23266;SDS011;11802;53.160;8.214;2024-03-08T13:27:41;23.53;;;15.40;;
23266;SDS011;11802;53.160;8.214;2024-03-08T13:30:10;23.87;;;15.30;;
23266;SDS011;11802;53.160;8.214;2024-03-08T13:32:43;26.10;;;16.80;;
23266;SDS011;11802;53.160;8.214;2024-03-08T13:35:09;26.17;;;16.30;;
23266;SDS011;11802;53.160;8.214;2024-03-08T13:37:42;25.63;;;16.20;;
23266;SDS011;11802;53.160;8.214;2024-03-08T13:40:08;23.67;;;14.37;;
23266;SDS011;11802;53.160;8.214;2024-03-08T13:42:39;24.23;;;15.60;;
23266;SDS011;11802;53.160;8.214;2024-03-08T13:45:05;27.17;;;16.13;;
23266;SDS011;11802;53.160;8.214;2024-03-08T13:47:33;24.93;;;15.50;;
23266;SDS011;11802;53.160;8.214;2024-03-08T13:49:59;25.53;;;15.50;;
23266;SDS011;11802;53.160;8.214;2024-03-08T13:52:25;29.17;;;16.30;;
23266;SDS011;11802;53.160;8.214;2024-03-08T13:54:54;24.00;;;15.07;;
23266;SDS011;11802;53.160;8.214;2024-03-08T13:57:20;23.90;;;14.63;;
23266;SDS011;11802;53.160;8.214;2024-03-08T13:59:47;25.97;;;15.83;;
23266;SDS011;11802;53.160;8.214;2024-03-08T14:02:14;24.67;;;15.37;;
23266;SDS011;11802;53.160;8.214;2024-03-08T14:04:40;27.77;;;16.33;;
23266;SDS011;11802;53.160;8.214;2024-03-08T14:07:06;25.07;;;16.37;;
23266;SDS011;11802;53.160;8.214;2024-03-08T14:09:33;27.97;;;17.70;;
23266;SDS011;11802;53.160;8.214;2024-03-08T14:12:05;29.10;;;17.93;;
23266;SDS011;11802;53.160;8.214;2024-03-08T14:14:34;31.23;;;17.97;;
23266;SDS011;11802;53.160;8.214;2024-03-08T14:17:00;31.27;;;17.30;;
23266;SDS011;11802;53.160;8.214;2024-03-08T14:19:27;26.30;;;17.00;;
23266;SDS011;11802;53.160;8.214;2024-03-08T14:21:53;28.30;;;16.60;;
23266;SDS011;11802;53.160;8.214;2024-03-08T14:24:18;29.57;;;18.23;;
23266;SDS011;11802;53.160;8.214;2024-03-08T14:26:45;30.20;;;18.80;;
23266;SDS011;11802;53.160;8.214;2024-03-08T14:29:13;30.17;;;18.47;;
23266;SDS011;11802;53.160;8.214;2024-03-08T14:31:39;27.90;;;18.50;;
23266;SDS011;11802;53.160;8.214;2024-03-08T14:34:06;32.63;;;19.30;;
23266;SDS011;11802;53.160;8.214;2024-03-08T14:36:32;31.40;;;18.20;;
23266;SDS011;11802;53.160;8.214;2024-03-08T14:38:58;28.67;;;17.80;;
23266;SDS011;11802;53.160;8.214;2024-03-08T14:41:23;29.13;;;18.03;;
23266;SDS011;11802;53.160;8.214;2024-03-08T14:43:49;29.57;;;20.03;;
23266;SDS011;11802;53.160;8.214;2024-03-08T14:46:17;26.53;;;17.53;;